Terminal Aerodrome Forecast
Issued by NWS Boston, MA

Home | Current Version | Previous Version | Text Only | Print | Product List | Glossary On
Versions: 1 2 3 4 5 6 7 8 9 10 11 12 13 14 15 16 17 18
000
FTUS41 KBOX 252027 AAA
TAFORH
TAF AMD
KORH 252027Z 2520/2618 05011KT 3SM -DZ BR VV002
     FM260300 03008KT 2SM -RA BR VV002
     FM260800 02005KT 2SM -RA BR OVC003
     FM261400 33010KT 3SM -RA BR OVC006
     FM261600 32010KT 4SM BR VCSH OVC015=

USA.gov is the U.S. government's official web portal to all federal, state and local government web resources and services.